Time;durP1;ratioP1;P1;durP2;ratioP2;P2;SDS_P1;SDS_P2;PMS_P1;PMS_P2;Temp;Humidity;BMP_temperature;BMP_pressure;BME280_temperature;BME280_humidity;BME280_pressure;Samples;Min_cycle;Max_cycle;Signal;HPM_P1;HPM_P2
2021/10/26 00:01:31;;;;;;;34.88;23.63;;;12.80;82.80;;;;;;4942848;28;89791;-90
2021/10/26 00:03:59;;;;;;;34.63;24.33;;;12.80;82.70;;;;;;4943305;28;88904;-90
2021/10/26 00:06:26;;;;;;;32.50;24.15;;;12.80;82.80;;;;;;4975042;28;92155;-90
2021/10/26 00:08:55;;;;;;;39.83;25.08;;;12.90;82.70;;;;;;4942803;28;91654;-91
2021/10/26 00:11:22;;;;;;;38.50;26.08;;;12.90;82.70;;;;;;4943724;28;88443;-90
2021/10/26 00:13:49;;;;;;;33.40;23.27;;;12.90;82.50;;;;;;4942833;28;88907;-91
2021/10/26 00:16:16;;;;;;;37.03;24.23;;;12.90;82.40;;;;;;4975107;28;92066;-90
2021/10/26 00:18:43;;;;;;;35.00;24.40;;;13.00;82.40;;;;;;4910387;28;89254;-90
2021/10/26 00:21:10;;;;;;;37.97;23.95;;;13.00;82.40;;;;;;4958956;28;88713;-90
2021/10/26 00:23:37;;;;;;;34.08;23.80;;;13.00;82.20;;;;;;4958205;28;89284;-91
2021/10/26 00:26:04;;;;;;;40.10;26.15;;;13.00;82.00;;;;;;4941311;28;92521;-90
2021/10/26 00:28:33;;;;;;;40.05;25.33;;;13.00;82.10;;;;;;4926453;28;91922;-91
2021/10/26 00:31:01;;;;;;;40.33;25.95;;;13.00;82.20;;;;;;4959446;28;88439;-91
2021/10/26 00:33:30;;;;;;;40.33;26.55;;;12.90;82.20;;;;;;4941937;28;88684;-91
2021/10/26 00:35:57;;;;;;;38.47;25.25;;;12.80;82.20;;;;;;4941558;28;90023;-91
2021/10/26 00:38:24;;;;;;;41.15;24.02;;;12.80;82.30;;;;;;4926707;28;91340;-91
2021/10/26 00:40:51;;;;;;;37.42;25.10;;;12.80;82.50;;;;;;4942168;28;90067;-91
2021/10/26 00:43:19;;;;;;;37.38;24.58;;;12.80;82.50;;;;;;4942324;28;89586;-91
2021/10/26 00:45:46;;;;;;;39.08;25.33;;;12.90;82.50;;;;;;4958579;28;88487;-91
2021/10/26 00:48:13;;;;;;;37.15;24.80;;;12.80;82.40;;;;;;4926319;28;91883;-91
2021/10/26 00:50:40;;;;;;;46.65;27.80;;;12.90;82.50;;;;;;4926259;28;89329;-90
2021/10/26 00:53:07;;;;;;;39.25;26.48;;;12.90;82.30;;;;;;4942148;28;90362;-91
2021/10/26 00:55:34;;;;;;;41.33;27.63;;;12.90;82.20;;;;;;4941642;28;92281;-91
2021/10/26 00:58:02;;;;;;;40.60;25.13;;;12.90;82.30;;;;;;4959692;28;89079;-91
2021/10/26 01:00:30;;;;;;;41.63;25.48;;;12.90;82.40;;;;;;4942585;28;90706;-91
2021/10/26 01:03:02;;;;;;;43.22;25.73;;;12.90;82.40;;;;;;4942798;28;91182;-91
2021/10/26 01:05:32;;;;;;;39.38;27.13;;;12.90;82.30;;;;;;4922456;28;90960;-91
2021/10/26 01:07:59;;;;;;;39.40;26.60;;;12.90;82.20;;;;;;4922155;28;91791;-90
2021/10/26 01:10:26;;;;;;;40.85;26.17;;;12.80;82.40;;;;;;4890613;28;88922;-91
2021/10/26 01:12:54;;;;;;;44.75;27.73;;;12.80;82.50;;;;;;4890850;28;91393;-91
2021/10/26 01:15:22;;;;;;;46.03;27.55;;;12.70;82.60;;;;;;4906403;28;90436;-91
2021/10/26 01:17:50;;;;;;;44.60;27.10;;;12.60;83.00;;;;;;4922169;28;91664;-90
2021/10/26 01:20:18;;;;;;;48.65;28.38;;;12.50;83.20;;;;;;4906625;28;89468;-91
2021/10/26 01:22:45;;;;;;;43.05;27.75;;;12.50;83.30;;;;;;4922048;28;92149;-90
2021/10/26 01:25:13;;;;;;;51.53;29.38;;;12.40;83.30;;;;;;4913673;28;91883;-91
2021/10/26 01:27:48;;;;;;;47.15;27.67;;;12.30;83.50;;;;;;4941800;28;91668;-90
2021/10/26 01:30:16;;;;;;;49.58;29.95;;;12.30;83.60;;;;;;4959304;28;88401;-90
2021/10/26 01:32:44;;;;;;;55.05;30.98;;;12.20;83.90;;;;;;4941154;28;90377;-90
2021/10/26 01:35:32;;;;;;;53.38;30.00;;;12.20;84.00;;;;;;4944284;28;89949;-91
2021/10/26 01:38:01;;;;;;;58.78;31.15;;;12.10;84.20;;;;;;4957594;28;91466;-91
2021/10/26 01:40:29;;;;;;;52.17;29.80;;;12.10;84.30;;;;;;4957818;28;90120;-91
2021/10/26 01:42:57;;;;;;;51.67;28.52;;;12.10;84.20;;;;;;4957660;28;88962;-91
2021/10/26 01:45:24;;;;;;;57.63;30.92;;;12.10;84.40;;;;;;4941430;28;90881;-91
2021/10/26 01:47:56;;;;;;;53.33;31.02;;;12.10;84.40;;;;;;4941415;28;89875;-91
2021/10/26 01:50:23;;;;;;;58.53;31.83;;;12.10;84.40;;;;;;4941974;28;88798;-91
2021/10/26 01:52:50;;;;;;;57.42;31.02;;;12.10;84.40;;;;;;4940286;28;91048;-90
2021/10/26 01:55:18;;;;;;;52.60;30.08;;;12.10;84.60;;;;;;4924498;28;92499;-91
2021/10/26 01:57:48;;;;;;;49.92;30.35;;;12.10;84.60;;;;;;4940809;28;91345;-91
2021/10/26 02:00:39;;;;;;;53.65;29.85;;;12.10;84.50;;;;;;4925542;28;88539;-91
2021/10/26 02:03:08;;;;;;;52.25;29.67;;;12.10;84.60;;;;;;4925457;28;91094;-91
2021/10/26 02:05:35;;;;;;;52.83;29.23;;;12.10;84.70;;;;;;4941209;28;91620;-91
2021/10/26 02:08:02;;;;;;;50.03;29.98;;;12.10;84.60;;;;;;4956847;28;91379;-91
2021/10/26 02:10:30;;;;;;;58.90;31.17;;;12.10;84.60;;;;;;4957094;28;90042;-91
2021/10/26 02:12:57;;;;;;;57.15;32.15;;;12.10;84.80;;;;;;4958783;28;88980;-90
2021/10/26 02:15:24;;;;;;;55.67;32.15;;;12.00;84.70;;;;;;4941097;28;92342;-90
2021/10/26 02:17:51;;;;;;;62.28;31.67;;;12.00;84.70;;;;;;4924832;28;91653;-90
2021/10/26 02:20:18;;;;;;;60.92;32.80;;;12.00;84.60;;;;;;4941172;28;90387;-91
2021/10/26 02:22:46;;;;;;;62.55;31.45;;;12.00;84.50;;;;;;4940729;28;92091;-91
2021/10/26 02:25:13;;;;;;;56.83;30.90;;;12.10;84.40;;;;;;4957230;28;89371;-90
2021/10/26 02:27:41;;;;;;;64.03;32.20;;;12.10;84.40;;;;;;4940837;28;90861;-90
2021/10/26 02:30:09;;;;;;;60.97;32.17;;;12.10;84.50;;;;;;4940785;28;90867;-91
2021/10/26 02:32:36;;;;;;;55.53;30.98;;;12.10;84.40;;;;;;4957135;28;91286;-90
2021/10/26 02:35:04;;;;;;;53.08;28.60;;;12.10;84.50;;;;;;4940972;28;91691;-90
2021/10/26 02:37:31;;;;;;;59.42;31.15;;;12.10;84.60;;;;;;4940751;28;91942;-91
2021/10/26 02:39:58;;;;;;;44.78;29.38;;;12.10;84.80;;;;;;4940885;28;90289;-91
2021/10/26 02:42:26;;;;;;;63.33;32.47;;;12.10;84.70;;;;;;4924800;28;91572;-91
2021/10/26 02:44:55;;;;;;;54.75;31.20;;;12.10;84.80;;;;;;4924730;28;92106;-91
2021/10/26 02:47:22;;;;;;;54.50;31.77;;;12.20;84.90;;;;;;4940564;28;91751;-90
2021/10/26 02:49:49;;;;;;;52.28;31.00;;;12.20;84.70;;;;;;4958337;28;88475;-90
2021/10/26 02:52:17;;;;;;;54.13;30.63;;;12.20;84.50;;;;;;4958352;28;88840;-91
2021/10/26 02:54:43;;;;;;;55.53;30.17;;;12.30;84.40;;;;;;4935674;28;91750;-91
2021/10/26 02:57:13;;;;;;;56.53;32.13;;;12.30;84.40;;;;;;4938479;28;88909;-91
2021/10/26 02:59:40;;;;;;;53.45;31.52;;;12.30;84.30;;;;;;4904407;28;90960;-91
2021/10/26 03:02:07;;;;;;;55.10;31.17;;;12.30;84.30;;;;;;4904784;28;91276;-91
2021/10/26 03:04:35;;;;;;;54.40;31.60;;;12.30;84.20;;;;;;4922052;28;91834;-91
2021/10/26 03:07:04;;;;;;;57.03;31.65;;;12.40;84.30;;;;;;4908413;28;91438;-90
2021/10/26 03:09:31;;;;;;;48.28;29.73;;;12.40;84.10;;;;;;4892827;28;89305;-90
2021/10/26 03:11:58;;;;;;;49.80;28.55;;;12.40;84.00;;;;;;4892412;28;89612;-91
2021/10/26 03:14:25;;;;;;;55.15;30.20;;;12.40;84.00;;;;;;4908258;28;92129;-91
2021/10/26 03:16:52;;;;;;;53.90;30.75;;;12.40;83.90;;;;;;4908189;28;91317;-91
2021/10/26 03:19:19;;;;;;;50.78;29.77;;;12.40;84.50;;;;;;4908279;28;90645;-91
2021/10/26 03:21:46;;;;;;;55.63;30.52;;;12.40;84.00;;;;;;4924064;28;91419;-91
2021/10/26 03:24:13;;;;;;;55.40;30.60;;;12.40;84.10;;;;;;4908230;28;92343;-91
2021/10/26 03:26:41;;;;;;;51.75;30.88;;;12.40;84.10;;;;;;4908106;28;91913;-90
2021/10/26 03:29:08;;;;;;;55.22;31.92;;;12.40;84.00;;;;;;4908358;28;89068;-90
2021/10/26 03:31:36;;;;;;;57.67;31.02;;;12.30;84.00;;;;;;4908300;28;90843;-91
2021/10/26 03:34:24;;;;;;;55.72;32.55;;;12.30;84.30;;;;;;4926348;28;90602;-91
2021/10/26 03:36:51;;;;;;;55.05;29.83;;;12.30;84.30;;;;;;4925031;28;91683;-90
2021/10/26 03:39:18;;;;;;;65.30;33.20;;;12.30;84.30;;;;;;4955994;28;88734;-90
2021/10/26 03:41:45;;;;;;;56.55;29.98;;;12.20;84.20;;;;;;4923433;28;88846;-90
2021/10/26 03:44:12;;;;;;;57.17;30.42;;;12.20;84.30;;;;;;4907367;28;91838;-91
2021/10/26 03:46:39;;;;;;;66.95;32.15;;;12.10;84.60;;;;;;4906766;28;90271;-91
2021/10/26 03:49:07;;;;;;;60.38;31.33;;;12.00;84.70;;;;;;4906556;28;90135;-91
2021/10/26 03:51:34;;;;;;;65.10;31.48;;;12.00;84.70;;;;;;4905667;28;90193;-91
2021/10/26 03:54:01;;;;;;;61.90;29.40;;;11.90;84.70;;;;;;4922201;28;91678;-91
2021/10/26 03:56:31;;;;;;;64.93;30.67;;;11.90;84.90;;;;;;4941051;28;91596;-90
2021/10/26 03:59:05;;;;;;;64.72;31.45;;;11.80;85.00;;;;;;4942977;28;89897;-91
2021/10/26 04:01:33;;;;;;;59.35;30.10;;;11.80;85.10;;;;;;4942425;28;91646;-90
2021/10/26 04:04:00;;;;;;;75.25;30.95;;;11.70;85.30;;;;;;4911090;28;91842;-90
2021/10/26 04:06:30;;;;;;;60.38;29.75;;;11.70;85.40;;;;;;4959114;28;90013;-90
2021/10/26 04:09:00;;;;;;;60.28;30.08;;;11.60;85.20;;;;;;4943137;28;90363;-90
2021/10/26 04:11:28;;;;;;;69.50;31.38;;;11.60;85.30;;;;;;4943315;28;91666;-91
2021/10/26 04:13:59;;;;;;;66.50;30.75;;;11.60;85.60;;;;;;4942292;28;92267;-90
2021/10/26 04:16:26;;;;;;;65.15;30.85;;;11.50;85.90;;;;;;4942027;28;91622;-91
2021/10/26 04:18:53;;;;;;;73.78;32.65;;;11.40;86.00;;;;;;4926860;28;90322;-91
2021/10/26 04:21:21;;;;;;;69.88;30.42;;;11.40;86.20;;;;;;4958605;28;91239;-91
2021/10/26 04:23:50;;;;;;;71.78;31.30;;;11.40;86.40;;;;;;4942864;28;91852;-91
2021/10/26 04:26:19;;;;;;;61.10;28.58;;;11.40;86.60;;;;;;4926385;28;91093;-91
2021/10/26 04:28:47;;;;;;;74.70;31.48;;;11.30;87.10;;;;;;4926643;28;91008;-91
2021/10/26 04:31:15;;;;;;;70.38;30.30;;;11.30;86.80;;;;;;4926611;28;90249;-91
2021/10/26 04:33:44;;;;;;;68.50;29.52;;;11.30;87.00;;;;;;4959179;28;91741;-90
2021/10/26 04:36:12;;;;;;;77.78;31.38;;;11.30;87.10;;;;;;4942166;28;91794;-91
2021/10/26 04:38:40;;;;;;;78.63;32.17;;;11.20;87.00;;;;;;4951658;28;90011;-90
2021/10/26 04:41:08;;;;;;;78.75;32.00;;;11.20;86.90;;;;;;4974596;28;91059;-90
2021/10/26 04:43:36;;;;;;;80.38;31.35;;;11.20;86.90;;;;;;4958988;28;91486;-90
2021/10/26 04:46:07;;;;;;;78.60;32.75;;;11.10;87.40;;;;;;4927068;28;91404;-91
2021/10/26 04:48:34;;;;;;;74.30;30.98;;;11.10;87.00;;;;;;4942247;28;89169;-91
2021/10/26 04:51:01;;;;;;;107.75;40.35;;;11.10;87.70;;;;;;4958263;28;92114;-90
2021/10/26 04:53:29;;;;;;;93.53;33.92;;;11.10;87.10;;;;;;4926241;28;91567;-91
2021/10/26 04:56:00;;;;;;;89.40;32.63;;;11.00;87.00;;;;;;4925999;28;91970;-90
2021/10/26 04:58:30;;;;;;;91.95;34.03;;;11.00;87.10;;;;;;4926675;28;89891;-91
2021/10/26 05:00:58;;;;;;;107.43;42.33;;;11.00;87.20;;;;;;4925988;28;91119;-90
2021/10/26 05:03:28;;;;;;;87.95;34.00;;;10.90;87.30;;;;;;4940096;28;91735;-90
2021/10/26 05:05:55;;;;;;;111.97;36.20;;;10.90;87.20;;;;;;4917614;28;91293;-91
2021/10/26 05:08:22;;;;;;;104.90;35.72;;;10.90;87.00;;;;;;4937005;28;91093;-91
2021/10/26 05:10:50;;;;;;;105.75;35.13;;;10.80;86.90;;;;;;4896529;28;91312;-90
2021/10/26 05:13:17;;;;;;;102.03;33.13;;;10.80;86.90;;;;;;4958597;28;92042;-90
2021/10/26 05:16:25;;;;;;;107.88;36.38;;;10.80;86.90;;;;;;4906787;28;89189;-91
2021/10/26 05:19:11;;;;;;;112.25;35.50;;;10.70;87.10;;;;;;4902327;28;88430;-91
2021/10/26 05:21:57;;;;;;;113.65;35.08;;;10.70;87.20;;;;;;4934514;28;88572;-91
2021/10/26 05:24:36;;;;;;;106.05;36.72;;;10.70;87.20;;;;;;4956638;28;89043;-91
2021/10/26 05:27:22;;;;;;;111.13;35.42;;;10.70;87.10;;;;;;4942131;28;91651;-90
2021/10/26 05:29:49;;;;;;;88.25;33.30;;;10.60;87.10;;;;;;4926650;28;88419;-90
2021/10/26 05:32:17;;;;;;;99.57;34.63;;;10.60;87.20;;;;;;4941847;28;88730;-90
2021/10/26 05:34:44;;;;;;;110.75;36.42;;;10.60;87.30;;;;;;4925906;28;90639;-91
2021/10/26 05:37:12;;;;;;;109.78;37.88;;;10.60;87.50;;;;;;4941566;28;91317;-90
2021/10/26 05:39:41;;;;;;;101.93;36.35;;;10.60;87.70;;;;;;4941615;28;90375;-91
2021/10/26 05:42:08;;;;;;;101.45;35.92;;;10.70;87.90;;;;;;4925544;28;92576;-91
2021/10/26 05:44:35;;;;;;;88.72;35.95;;;10.70;88.10;;;;;;4925547;28;92412;-90
2021/10/26 05:47:02;;;;;;;73.32;34.03;;;10.80;88.40;;;;;;4959194;28;89206;-91
2021/10/26 05:49:30;;;;;;;74.65;32.40;;;10.90;88.50;;;;;;4935588;28;90735;-91
2021/10/26 05:51:57;;;;;;;77.30;33.28;;;11.00;88.20;;;;;;4941371;28;92055;-91
2021/10/26 05:54:25;;;;;;;71.13;32.53;;;11.10;88.30;;;;;;4940983;28;92178;-91
2021/10/26 05:56:54;;;;;;;72.35;35.20;;;11.20;88.30;;;;;;4942665;28;89285;-90
2021/10/26 05:59:21;;;;;;;75.18;32.70;;;11.20;88.70;;;;;;4925541;28;90363;-91
2021/10/26 06:01:49;;;;;;;64.18;31.45;;;11.40;88.50;;;;;;4924770;28;93975;-90
2021/10/26 06:04:17;;;;;;;68.10;30.25;;;11.50;88.30;;;;;;4958580;28;88462;-91
2021/10/26 06:06:44;;;;;;;64.13;30.05;;;11.50;88.00;;;;;;4940860;28;90766;-90
2021/10/26 06:09:16;;;;;;;69.25;31.50;;;11.60;87.90;;;;;;4927962;28;90403;-91
2021/10/26 06:12:00;;;;;;;62.33;30.38;;;11.70;87.70;;;;;;4924083;28;91581;-91
2021/10/26 06:14:28;;;;;;;56.63;28.02;;;11.80;87.60;;;;;;4925209;28;91506;-89
2021/10/26 06:16:55;;;;;;;58.58;29.38;;;11.80;87.40;;;;;;4925336;28;88335;-90
2021/10/26 06:19:22;;;;;;;63.38;29.13;;;11.90;87.30;;;;;;4925217;28;90624;-90
2021/10/26 06:21:50;;;;;;;60.88;30.17;;;12.00;87.00;;;;;;4956751;28;91254;-90
2021/10/26 06:24:21;;;;;;;53.50;28.00;;;12.00;86.70;;;;;;4957485;28;92194;-90
2021/10/26 06:26:48;;;;;;;53.72;28.58;;;12.10;86.60;;;;;;4957014;28;91830;-90
2021/10/26 06:29:15;;;;;;;58.65;28.73;;;12.10;86.20;;;;;;4909245;28;90368;-90
2021/10/26 06:32:00;;;;;;;48.60;26.13;;;12.20;86.10;;;;;;4941602;28;89038;-90
2021/10/26 06:34:28;;;;;;;54.65;27.20;;;12.20;86.10;;;;;;4924265;28;91752;-90
2021/10/26 06:36:56;;;;;;;44.00;25.05;;;12.30;86.00;;;;;;4940397;28;91359;-90
2021/10/26 06:39:23;;;;;;;53.67;26.90;;;12.30;85.80;;;;;;4942609;28;90603;-90
2021/10/26 06:41:51;;;;;;;50.30;24.35;;;12.30;85.60;;;;;;4953015;28;90697;-90
2021/10/26 06:44:38;;;;;;;50.17;26.50;;;12.30;85.60;;;;;;4943690;28;90408;-89
2021/10/26 06:47:23;;;;;;;45.85;24.75;;;12.30;85.30;;;;;;4944370;28;88699;-90
2021/10/26 06:50:10;;;;;;;40.90;22.88;;;12.40;85.30;;;;;;4933611;28;88467;-90
2021/10/26 06:52:55;;;;;;;44.92;25.63;;;12.40;85.10;;;;;;4958312;28;88898;-90
2021/10/26 06:55:41;;;;;;;48.63;23.67;;;12.40;85.10;;;;;;4945671;28;88949;-90
2021/10/26 06:58:40;;;;;;;44.92;23.35;;;12.50;84.90;;;;;;4935801;28;89195;-91
2021/10/26 07:01:40;;;;;;;45.97;24.52;;;12.50;85.30;;;;;;4929084;28;89190;-91
2021/10/26 07:04:12;;;;;;;46.33;23.98;;;12.50;84.40;;;;;;4943908;28;90889;-91
2021/10/26 07:07:02;;;;;;;44.85;24.67;;;12.60;84.20;;;;;;4945801;28;89875;-91
2021/10/26 07:09:38;;;;;;;45.28;25.58;;;12.60;84.20;;;;;;4945900;28;90915;-91
2021/10/26 07:12:16;;;;;;;39.95;23.45;;;12.70;84.20;;;;;;4945460;28;90892;-90
2021/10/26 07:14:44;;;;;;;42.13;26.05;;;12.80;83.90;;;;;;4929098;28;91519;-91
2021/10/26 07:17:13;;;;;;;42.95;24.23;;;12.80;83.70;;;;;;4961013;28;91081;-91
2021/10/26 07:19:40;;;;;;;43.20;25.38;;;12.90;83.40;;;;;;4959046;28;91798;-92
2021/10/26 07:22:25;;;;;;;41.58;24.95;;;12.90;83.10;;;;;;4945425;28;88638;-91
2021/10/26 07:25:08;;;;;;;40.40;22.52;;;13.00;83.00;;;;;;4944131;28;89237;-91
2021/10/26 07:27:39;;;;;;;;;;;13.00;82.90;;;;;;4944165;28;91775;-91
2021/10/26 07:30:10;;;;;;;39.15;21.30;;;13.00;83.00;;;;;;4945858;28;91793;-91
2021/10/26 07:32:38;;;;;;;44.00;24.15;;;12.90;83.00;;;;;;4943952;28;89594;-91
2021/10/26 07:35:05;;;;;;;34.63;21.50;;;13.00;82.80;;;;;;4959774;28;91647;-91
2021/10/26 07:37:40;;;;;;;37.13;20.65;;;13.00;82.90;;;;;;4943341;28;91993;-90
2021/10/26 07:40:16;;;;;;;38.25;21.23;;;13.10;82.70;;;;;;4944425;28;90130;-90
2021/10/26 07:43:11;;;;;;;42.22;23.00;;;13.10;82.50;;;;;;4941430;28;88609;-90
2021/10/26 07:46:06;;;;;;;38.15;21.90;;;13.20;82.40;;;;;;4959317;28;88734;-90
2021/10/26 07:48:35;;;;;;;35.00;21.57;;;13.20;82.40;;;;;;4943729;28;90667;-91
2021/10/26 07:51:02;;;;;;;42.15;25.05;;;13.20;82.40;;;;;;4942163;28;89047;-91
2021/10/26 07:53:31;;;;;;;42.30;24.10;;;13.30;82.40;;;;;;4942753;28;90782;-90
2021/10/26 07:56:05;;;;;;;43.10;23.70;;;13.30;82.90;;;;;;4951724;28;90074;-90
2021/10/26 07:58:34;;;;;;;43.28;24.77;;;13.40;82.20;;;;;;4978500;28;92261;-91
2021/10/26 08:01:02;;;;;;;44.03;25.08;;;13.50;82.00;;;;;;4945985;28;91759;-91
2021/10/26 08:03:47;;;;;;;35.28;23.23;;;13.50;81.90;;;;;;4972131;28;88925;-90
2021/10/26 08:06:15;;;;;;;40.45;24.17;;;13.60;81.80;;;;;;4940546;28;95531;-90
2021/10/26 08:08:42;;;;;;;57.05;37.92;;;13.60;81.50;;;;;;4941270;28;91906;-90
2021/10/26 08:11:13;;;;;;;58.22;33.88;;;13.70;81.50;;;;;;4940535;28;92598;-90
2021/10/26 08:13:40;;;;;;;43.42;26.38;;;13.70;81.40;;;;;;4909061;28;92567;-91
2021/10/26 08:16:09;;;;;;;46.67;26.98;;;13.80;81.20;;;;;;4923230;28;97827;-90
2021/10/26 08:18:36;;;;;;;39.00;24.42;;;13.90;81.60;;;;;;4924724;28;95361;-90
2021/10/26 08:21:03;;;;;;;39.10;24.63;;;13.90;80.90;;;;;;4908583;28;92488;-90
2021/10/26 08:23:31;;;;;;;46.35;23.67;;;14.00;80.70;;;;;;4939923;28;92482;-90
2021/10/26 08:26:03;;;;;;;38.50;24.35;;;14.00;80.50;;;;;;4924498;28;94312;-91
2021/10/26 08:28:30;;;;;;;41.60;24.60;;;14.10;80.30;;;;;;4923700;28;95670;-90
2021/10/26 08:31:16;;;;;;;34.83;22.88;;;14.20;80.00;;;;;;4924119;28;92537;-90
2021/10/26 08:34:14;;;;;;;36.67;23.23;;;14.30;79.60;;;;;;4914603;28;91731;-90
2021/10/26 08:36:40;;;;;;;34.85;22.65;;;14.30;79.40;;;;;;4930834;28;93357;-90
2021/10/26 08:39:09;;;;;;;29.48;20.48;;;14.30;79.10;;;;;;4924325;28;96008;-90
2021/10/26 08:41:45;;;;;;;34.15;22.27;;;14.30;78.70;;;;;;4939583;28;95056;-90
2021/10/26 08:44:16;;;;;;;32.50;20.20;;;14.30;78.30;;;;;;4957410;28;92500;-91
2021/10/26 08:46:45;;;;;;;32.28;21.30;;;14.40;78.50;;;;;;4957291;28;96888;-91
2021/10/26 08:49:14;;;;;;;32.30;21.38;;;14.50;78.40;;;;;;4941234;28;95815;-91
2021/10/26 08:51:54;;;;;;;32.42;21.35;;;14.60;78.30;;;;;;4954532;28;92370;-91
2021/10/26 08:54:24;;;;;;;36.58;21.48;;;14.70;78.20;;;;;;4925287;28;92416;-91
2021/10/26 08:57:14;;;;;;;30.02;20.30;;;14.70;77.60;;;;;;4905894;28;93163;-91
2021/10/26 09:00:08;;;;;;;26.40;17.13;;;14.80;77.30;;;;;;4921569;28;92636;-90
2021/10/26 09:02:49;;;;;;;27.38;18.33;;;14.90;76.70;;;;;;4921408;28;92611;-91
2021/10/26 09:05:23;;;;;;;29.67;19.05;;;14.90;76.40;;;;;;4926296;28;92407;-91
2021/10/26 09:08:10;;;;;;;27.45;18.58;;;14.80;76.30;;;;;;4935258;28;98313;-90
2021/10/26 09:10:40;;;;;;;27.13;18.48;;;14.80;76.30;;;;;;4952837;28;96462;-90
2021/10/26 09:16:41;;;;;;;27.30;19.35;;;14.80;76.50;;;;;;4932467;28;92914;-90
2021/10/26 09:19:42;;;;;;;27.15;18.45;;;14.80;76.40;;;;;;4919224;28;92774;-91
2021/10/26 09:22:16;;;;;;;33.60;24.40;;;14.90;76.00;;;;;;4904393;28;95427;-90
2021/10/26 09:24:59;;;;;;;27.77;18.48;;;14.90;76.20;;;;;;4904776;28;92931;-91
2021/10/26 09:27:27;;;;;;;29.83;20.95;;;15.00;76.20;;;;;;4917314;28;91875;-91
2021/10/26 09:29:57;;;;;;;26.40;18.67;;;15.00;76.30;;;;;;4920088;28;95786;-90
2021/10/26 09:33:01;;;;;;;29.58;19.25;;;15.00;75.80;;;;;;4936061;28;95684;-91
2021/10/26 09:35:28;;;;;;;27.38;18.27;;;15.10;75.40;;;;;;4914631;28;95014;-91
2021/10/26 09:37:58;;;;;;;24.38;16.98;;;15.10;75.70;;;;;;4932554;28;92403;-91
2021/10/26 09:40:44;;;;;;;30.30;18.38;;;15.20;75.50;;;;;;4921098;28;93174;-90
2021/10/26 09:43:12;;;;;;;30.38;18.02;;;15.40;75.30;;;;;;4936674;28;95424;-91
2021/10/26 09:45:39;;;;;;;23.92;17.15;;;15.40;74.90;;;;;;4904156;28;92372;-91
2021/10/26 09:48:22;;;;;;;25.02;16.83;;;15.50;74.70;;;;;;4903698;28;101516;-91
2021/10/26 09:50:49;;;;;;;26.77;17.67;;;15.60;73.80;;;;;;4904080;28;95920;-91
2021/10/26 09:53:17;;;;;;;25.35;17.08;;;15.50;74.00;;;;;;4904703;28;95701;-91
2021/10/26 09:55:48;;;;;;;29.13;18.33;;;15.50;74.00;;;;;;4947057;28;92397;-91
2021/10/26 09:58:19;;;;;;;31.17;18.88;;;15.50;74.20;;;;;;4939315;28;92509;-90
2021/10/26 10:00:51;;;;;;;29.20;16.67;;;15.60;74.30;;;;;;4954309;28;96140;-90
2021/10/26 10:03:22;;;;;;;26.45;17.05;;;15.60;74.10;;;;;;4922647;28;98412;-90
2021/10/26 10:06:00;;;;;;;29.15;17.40;;;15.60;74.00;;;;;;4923164;28;92384;-90
2021/10/26 10:08:34;;;;;;;29.60;16.90;;;15.80;74.00;;;;;;4923231;28;92491;-91
2021/10/26 10:11:07;;;;;;;29.13;17.15;;;15.80;74.40;;;;;;4922480;28;96078;-91
2021/10/26 10:13:35;;;;;;;26.88;17.05;;;16.00;73.10;;;;;;4939083;28;94274;-91
2021/10/26 10:16:03;;;;;;;22.00;16.27;;;16.10;73.00;;;;;;4938671;28;92690;-91
2021/10/26 10:18:30;;;;;;;24.48;15.75;;;16.30;72.50;;;;;;4957058;28;91990;-91
2021/10/26 10:20:57;;;;;;;24.23;15.85;;;16.50;71.80;;;;;;4939121;28;93809;-91
2021/10/26 10:23:25;;;;;;;26.02;16.77;;;16.60;71.00;;;;;;4939017;28;93243;-90
2021/10/26 10:25:56;;;;;;;29.13;17.10;;;16.70;71.00;;;;;;4937843;28;94741;-90
2021/10/26 10:28:28;;;;;;;22.98;16.70;;;16.70;70.30;;;;;;4956827;28;92513;-91
2021/10/26 10:30:58;;;;;;;25.27;14.32;;;16.70;69.80;;;;;;4923664;28;96083;-90
2021/10/26 10:33:25;;;;;;;22.80;14.50;;;16.70;68.40;;;;;;4922835;28;94517;-91
2021/10/26 10:35:57;;;;;;;26.15;15.68;;;16.60;68.90;;;;;;4934340;28;92577;-90
2021/10/26 10:38:32;;;;;;;21.63;14.70;;;16.70;68.80;;;;;;4956781;28;92389;-90
2021/10/26 10:41:23;;;;;;;25.63;16.60;;;16.70;68.80;;;;;;4923066;28;95819;-90
2021/10/26 10:43:51;;;;;;;22.65;14.85;;;16.60;68.60;;;;;;4937653;28;94587;-90
2021/10/26 10:46:48;;;;;;;21.88;15.38;;;16.60;69.10;;;;;;4934219;28;92630;-91
2021/10/26 10:49:24;;;;;;;18.63;14.15;;;16.60;69.10;;;;;;4919809;28;92411;-90
2021/10/26 10:52:05;;;;;;;21.17;14.00;;;16.70;69.10;;;;;;4936580;28;95719;-90
2021/10/26 10:54:38;;;;;;;22.83;15.05;;;16.70;69.00;;;;;;4937416;28;98252;-90
2021/10/26 10:57:30;;;;;;;22.73;14.55;;;16.70;68.80;;;;;;4938299;28;92586;-90
2021/10/26 11:00:16;;;;;;;21.88;13.52;;;16.70;68.50;;;;;;4956015;28;92390;-91
2021/10/26 11:02:48;;;;;;;23.60;14.25;;;16.80;68.60;;;;;;4938367;28;95433;-91
2021/10/26 11:05:52;;;;;;;21.15;13.73;;;16.90;68.40;;;;;;4938472;28;95622;-90
2021/10/26 11:08:42;;;;;;;22.02;15.93;;;17.00;68.00;;;;;;4940747;28;92413;-91
2021/10/26 11:11:10;;;;;;;18.30;13.23;;;17.20;67.80;;;;;;4955012;28;91773;-91
2021/10/26 11:13:37;;;;;;;21.60;14.25;;;17.20;67.70;;;;;;4939230;28;92704;-91
2021/10/26 11:16:07;;;;;;;20.00;12.48;;;17.20;67.40;;;;;;4921959;28;94641;-91
2021/10/26 11:18:48;;;;;;;18.15;11.55;;;17.30;66.90;;;;;;4953112;28;94927;-91
2021/10/26 11:21:21;;;;;;;21.00;14.30;;;17.50;66.20;;;;;;4955487;28;92325;-90
2021/10/26 11:23:59;;;;;;;21.45;12.05;;;17.60;66.50;;;;;;4954778;28;97142;-90
2021/10/26 11:26:51;;;;;;;16.20;11.38;;;17.70;65.70;;;;;;4924715;28;95774;-90
2021/10/26 11:29:31;;;;;;;18.83;11.80;;;17.70;65.40;;;;;;4958314;28;92411;-91
2021/10/26 11:31:58;;;;;;;19.38;11.63;;;17.80;65.20;;;;;;4974720;28;92361;-90
2021/10/26 11:34:32;;;;;;;17.58;11.05;;;17.70;64.80;;;;;;4941313;28;95948;-91
2021/10/26 11:37:02;;;;;;;19.17;13.10;;;17.70;64.50;;;;;;4940947;28;95723;-91
2021/10/26 11:39:30;;;;;;;15.18;10.55;;;17.70;64.80;;;;;;4974076;28;92417;-91
2021/10/26 11:41:59;;;;;;;15.50;11.73;;;17.70;64.90;;;;;;4941919;28;94646;-91
2021/10/26 11:44:28;;;;;;;18.45;10.73;;;17.70;65.00;;;;;;4957961;28;95838;-90
2021/10/26 11:46:58;;;;;;;18.33;11.43;;;17.70;65.00;;;;;;4941634;28;95894;-90
2021/10/26 11:49:26;;;;;;;18.27;10.98;;;17.60;64.70;;;;;;4926464;28;92460;-91
2021/10/26 11:51:58;;;;;;;15.55;10.43;;;17.60;64.50;;;;;;4957882;28;92561;-91
2021/10/26 11:54:26;;;;;;;16.70;10.75;;;17.60;64.60;;;;;;4941613;28;93681;-91
2021/10/26 11:56:55;;;;;;;15.32;10.77;;;17.60;64.80;;;;;;4950910;28;94815;-91
2021/10/26 11:59:28;;;;;;;18.08;10.30;;;17.50;65.10;;;;;;4950619;28;92749;-91
2021/10/26 12:02:20;;;;;;;16.13;10.80;;;17.50;65.20;;;;;;4925704;28;91606;-91
2021/10/26 12:05:03;;;;;;;18.83;11.82;;;17.50;65.20;;;;;;4940091;28;96102;-91
2021/10/26 12:07:30;;;;;;;20.55;10.88;;;17.50;64.80;;;;;;4936983;28;95799;-91
2021/10/26 12:09:59;;;;;;;17.50;11.27;;;17.50;65.40;;;;;;4905126;28;94750;-91
2021/10/26 12:12:30;;;;;;;18.20;11.07;;;17.50;65.30;;;;;;4953368;28;92448;-91
2021/10/26 12:15:04;;;;;;;16.92;10.88;;;17.50;65.20;;;;;;4940551;28;94159;-91
2021/10/26 12:17:32;;;;;;;18.75;10.35;;;17.60;65.50;;;;;;4957050;28;95928;-91
2021/10/26 12:20:21;;;;;;;16.80;10.73;;;17.50;65.30;;;;;;4957493;28;92316;-91
2021/10/26 12:23:05;;;;;;;18.52;11.32;;;17.50;64.40;;;;;;4955157;28;92621;-91
2021/10/26 12:25:55;;;;;;;15.45;10.73;;;17.50;65.00;;;;;;4927722;28;96083;-90
2021/10/26 12:28:23;;;;;;;17.08;11.32;;;17.50;64.80;;;;;;4942806;28;92887;-91
2021/10/26 12:30:51;;;;;;;18.40;11.90;;;17.50;64.90;;;;;;4940880;28;92383;-90
2021/10/26 12:33:24;;;;;;;20.23;12.57;;;17.50;64.80;;;;;;4925577;28;92469;-91
2021/10/26 12:35:56;;;;;;;18.92;12.02;;;17.60;64.60;;;;;;4939032;28;98420;-91
2021/10/26 12:38:39;;;;;;;21.20;13.48;;;17.60;64.60;;;;;;4951267;28;98177;-91
2021/10/26 12:41:16;;;;;;;22.27;13.32;;;17.60;64.40;;;;;;4956513;28;92499;-90
2021/10/26 12:43:57;;;;;;;17.73;13.50;;;17.60;64.40;;;;;;4940694;28;92461;-91
2021/10/26 12:46:25;;;;;;;18.58;13.77;;;17.60;64.40;;;;;;4957546;28;93393;-91
2021/10/26 12:49:12;;;;;;;20.17;13.40;;;17.60;64.30;;;;;;4957384;28;93090;-91
2021/10/26 12:51:41;;;;;;;19.63;13.57;;;17.70;64.20;;;;;;4957528;28;92425;-91
2021/10/26 12:54:12;;;;;;;20.92;13.85;;;17.60;64.10;;;;;;4923970;28;91876;-91